sensor_id;sensor_type;location;lat;lon;timestamp;temperature;humidity
27848;DHT22;15212;48.830;8.730;2024-02-28T00:01:12;6.70;99.90
27848;DHT22;15212;48.830;8.730;2024-02-28T00:03:40;6.70;99.90
27848;DHT22;15212;48.830;8.730;2024-02-28T00:06:09;6.70;99.90
27848;DHT22;15212;48.830;8.730;2024-02-28T00:08:37;6.70;99.90
27848;DHT22;15212;48.830;8.730;2024-02-28T00:11:05;6.70;99.90
27848;DHT22;15212;48.830;8.730;2024-02-28T00:13:34;6.70;99.90
27848;DHT22;15212;48.830;8.730;2024-02-28T00:16:03;6.60;99.90
27848;DHT22;15212;48.830;8.730;2024-02-28T00:18:31;6.60;99.90
27848;DHT22;15212;48.830;8.730;2024-02-28T00:20:59;6.60;99.90
27848;DHT22;15212;48.830;8.730;2024-02-28T00:23:28;6.60;99.90
27848;DHT22;15212;48.830;8.730;2024-02-28T00:25:57;6.50;99.90
27848;DHT22;15212;48.830;8.730;2024-02-28T00:28:25;6.50;99.90
27848;DHT22;15212;48.830;8.730;2024-02-28T00:30:53;6.50;99.90
27848;DHT22;15212;48.830;8.730;2024-02-28T00:33:22;6.40;99.90
27848;DHT22;15212;48.830;8.730;2024-02-28T00:35:50;6.40;99.90
27848;DHT22;15212;48.830;8.730;2024-02-28T00:38:20;6.30;99.90
27848;DHT22;15212;48.830;8.730;2024-02-28T00:40:48;6.20;99.90
27848;DHT22;15212;48.830;8.730;2024-02-28T00:43:17;6.20;99.90
27848;DHT22;15212;48.830;8.730;2024-02-28T00:45:45;6.20;99.90
27848;DHT22;15212;48.830;8.730;2024-02-28T00:48:14;6.10;99.90
27848;DHT22;15212;48.830;8.730;2024-02-28T00:50:42;6.10;99.90
27848;DHT22;15212;48.830;8.730;2024-02-28T00:53:11;6.10;99.90
27848;DHT22;15212;48.830;8.730;2024-02-28T00:55:39;6.00;99.90
27848;DHT22;15212;48.830;8.730;2024-02-28T00:58:07;6.00;99.90
27848;DHT22;15212;48.830;8.730;2024-02-28T01:00:36;5.90;99.90
27848;DHT22;15212;48.830;8.730;2024-02-28T01:03:04;5.90;99.90
27848;DHT22;15212;48.830;8.730;2024-02-28T01:05:35;5.80;99.90
27848;DHT22;15212;48.830;8.730;2024-02-28T01:08:04;5.80;99.90
27848;DHT22;15212;48.830;8.730;2024-02-28T01:10:33;5.80;99.90
27848;DHT22;15212;48.830;8.730;2024-02-28T01:13:03;5.70;99.90
27848;DHT22;15212;48.830;8.730;2024-02-28T01:15:31;5.70;99.90
27848;DHT22;15212;48.830;8.730;2024-02-28T01:18:00;5.70;99.90
27848;DHT22;15212;48.830;8.730;2024-02-28T01:20:28;5.70;99.90
27848;DHT22;15212;48.830;8.730;2024-02-28T01:22:57;5.70;99.90
27848;DHT22;15212;48.830;8.730;2024-02-28T01:25:25;5.60;99.90
27848;DHT22;15212;48.830;8.730;2024-02-28T01:27:55;5.50;99.90
27848;DHT22;15212;48.830;8.730;2024-02-28T01:30:25;5.50;99.90
27848;DHT22;15212;48.830;8.730;2024-02-28T01:32:53;5.50;99.90
27848;DHT22;15212;48.830;8.730;2024-02-28T01:35:22;5.40;99.90
27848;DHT22;15212;48.830;8.730;2024-02-28T01:37:50;5.40;99.90
27848;DHT22;15212;48.830;8.730;2024-02-28T01:40:19;5.30;99.90
27848;DHT22;15212;48.830;8.730;2024-02-28T01:42:47;5.30;99.90
27848;DHT22;15212;48.830;8.730;2024-02-28T01:45:16;5.20;99.90
27848;DHT22;15212;48.830;8.730;2024-02-28T01:47:44;5.20;99.90
27848;DHT22;15212;48.830;8.730;2024-02-28T01:50:13;5.20;99.90
27848;DHT22;15212;48.830;8.730;2024-02-28T01:52:42;5.10;99.90
27848;DHT22;15212;48.830;8.730;2024-02-28T01:55:10;5.10;99.90
27848;DHT22;15212;48.830;8.730;2024-02-28T01:57:39;5.10;99.90
27848;DHT22;15212;48.830;8.730;2024-02-28T02:00:08;5.00;99.90
27848;DHT22;15212;48.830;8.730;2024-02-28T02:02:37;5.00;99.90
27848;DHT22;15212;48.830;8.730;2024-02-28T02:05:06;5.00;99.90
27848;DHT22;15212;48.830;8.730;2024-02-28T02:07:36;4.90;99.90
27848;DHT22;15212;48.830;8.730;2024-02-28T02:10:06;4.90;99.90
27848;DHT22;15212;48.830;8.730;2024-02-28T02:12:37;4.80;99.90
27848;DHT22;15212;48.830;8.730;2024-02-28T02:15:05;4.80;99.90
27848;DHT22;15212;48.830;8.730;2024-02-28T02:17:34;4.80;99.90
27848;DHT22;15212;48.830;8.730;2024-02-28T02:20:02;4.80;99.90
27848;DHT22;15212;48.830;8.730;2024-02-28T02:22:39;4.90;99.90
27848;DHT22;15212;48.830;8.730;2024-02-28T02:25:08;4.80;99.90
27848;DHT22;15212;48.830;8.730;2024-02-28T02:27:36;4.80;99.90
27848;DHT22;15212;48.830;8.730;2024-02-28T02:30:05;4.80;99.90
27848;DHT22;15212;48.830;8.730;2024-02-28T02:32:34;4.80;99.90
27848;DHT22;15212;48.830;8.730;2024-02-28T02:35:02;4.80;99.90
27848;DHT22;15212;48.830;8.730;2024-02-28T02:37:31;4.90;99.90
27848;DHT22;15212;48.830;8.730;2024-02-28T02:40:00;4.80;99.90
27848;DHT22;15212;48.830;8.730;2024-02-28T02:42:29;4.90;99.90
27848;DHT22;15212;48.830;8.730;2024-02-28T02:44:57;4.90;99.90
27848;DHT22;15212;48.830;8.730;2024-02-28T02:47:25;4.90;99.90
27848;DHT22;15212;48.830;8.730;2024-02-28T02:49:54;5.00;99.90
27848;DHT22;15212;48.830;8.730;2024-02-28T02:52:22;5.00;99.90
27848;DHT22;15212;48.830;8.730;2024-02-28T02:54:50;5.00;99.90
27848;DHT22;15212;48.830;8.730;2024-02-28T02:57:19;4.90;99.90
27848;DHT22;15212;48.830;8.730;2024-02-28T02:59:48;4.90;99.90
27848;DHT22;15212;48.830;8.730;2024-02-28T03:02:16;4.90;99.90
27848;DHT22;15212;48.830;8.730;2024-02-28T03:04:44;4.90;99.90
27848;DHT22;15212;48.830;8.730;2024-02-28T03:07:13;4.80;99.90
27848;DHT22;15212;48.830;8.730;2024-02-28T03:09:41;4.80;99.90
27848;DHT22;15212;48.830;8.730;2024-02-28T03:12:09;4.80;99.90
27848;DHT22;15212;48.830;8.730;2024-02-28T03:14:38;4.80;99.90
27848;DHT22;15212;48.830;8.730;2024-02-28T03:17:06;4.80;99.90
27848;DHT22;15212;48.830;8.730;2024-02-28T03:19:34;4.80;99.90
27848;DHT22;15212;48.830;8.730;2024-02-28T03:22:04;4.80;99.90
27848;DHT22;15212;48.830;8.730;2024-02-28T03:24:32;4.80;99.90
27848;DHT22;15212;48.830;8.730;2024-02-28T03:27:04;4.90;99.90
27848;DHT22;15212;48.830;8.730;2024-02-28T03:29:32;4.80;99.90
27848;DHT22;15212;48.830;8.730;2024-02-28T03:32:01;4.80;99.90
27848;DHT22;15212;48.830;8.730;2024-02-28T03:34:30;4.80;99.90
27848;DHT22;15212;48.830;8.730;2024-02-28T03:36:58;4.70;99.90
27848;DHT22;15212;48.830;8.730;2024-02-28T03:39:27;4.70;99.90
27848;DHT22;15212;48.830;8.730;2024-02-28T03:41:55;4.70;99.90
27848;DHT22;15212;48.830;8.730;2024-02-28T03:44:24;4.70;99.90
27848;DHT22;15212;48.830;8.730;2024-02-28T03:46:52;4.70;99.90
27848;DHT22;15212;48.830;8.730;2024-02-28T03:49:20;4.60;99.90
27848;DHT22;15212;48.830;8.730;2024-02-28T03:51:49;4.70;99.90
27848;DHT22;15212;48.830;8.730;2024-02-28T03:54:17;4.60;99.90
27848;DHT22;15212;48.830;8.730;2024-02-28T03:56:45;4.60;99.90
27848;DHT22;15212;48.830;8.730;2024-02-28T03:59:14;4.60;99.90
27848;DHT22;15212;48.830;8.730;2024-02-28T04:01:42;4.50;99.90
27848;DHT22;15212;48.830;8.730;2024-02-28T04:04:11;4.50;99.90
27848;DHT22;15212;48.830;8.730;2024-02-28T04:06:39;4.50;99.90
27848;DHT22;15212;48.830;8.730;2024-02-28T04:09:07;4.50;99.90
27848;DHT22;15212;48.830;8.730;2024-02-28T04:11:37;4.50;99.90
27848;DHT22;15212;48.830;8.730;2024-02-28T04:14:06;4.50;99.90
27848;DHT22;15212;48.830;8.730;2024-02-28T04:16:34;4.40;99.90
27848;DHT22;15212;48.830;8.730;2024-02-28T04:19:04;4.40;99.90
27848;DHT22;15212;48.830;8.730;2024-02-28T04:21:32;4.40;99.90
27848;DHT22;15212;48.830;8.730;2024-02-28T04:24:01;4.40;99.90
27848;DHT22;15212;48.830;8.730;2024-02-28T04:26:29;4.50;99.90
27848;DHT22;15212;48.830;8.730;2024-02-28T04:28:58;4.50;99.90
27848;DHT22;15212;48.830;8.730;2024-02-28T04:31:28;4.50;99.90
27848;DHT22;15212;48.830;8.730;2024-02-28T04:33:56;4.50;99.90
27848;DHT22;15212;48.830;8.730;2024-02-28T04:36:24;4.50;99.90
27848;DHT22;15212;48.830;8.730;2024-02-28T04:38:53;4.50;99.90
27848;DHT22;15212;48.830;8.730;2024-02-28T04:41:22;4.50;99.90
27848;DHT22;15212;48.830;8.730;2024-02-28T04:43:50;4.60;99.90
27848;DHT22;15212;48.830;8.730;2024-02-28T04:46:19;4.60;99.90
27848;DHT22;15212;48.830;8.730;2024-02-28T04:48:47;4.60;99.90
27848;DHT22;15212;48.830;8.730;2024-02-28T04:51:17;4.60;99.90
27848;DHT22;15212;48.830;8.730;2024-02-28T04:53:45;4.60;99.90
27848;DHT22;15212;48.830;8.730;2024-02-28T04:56:14;4.60;99.90
27848;DHT22;15212;48.830;8.730;2024-02-28T04:58:42;4.60;99.90
27848;DHT22;15212;48.830;8.730;2024-02-28T05:01:10;4.60;99.90
27848;DHT22;15212;48.830;8.730;2024-02-28T05:03:39;4.60;99.90
27848;DHT22;15212;48.830;8.730;2024-02-28T05:06:07;4.60;99.90
27848;DHT22;15212;48.830;8.730;2024-02-28T05:08:37;4.60;99.90
27848;DHT22;15212;48.830;8.730;2024-02-28T05:11:06;4.60;99.90
27848;DHT22;15212;48.830;8.730;2024-02-28T05:13:35;4.60;99.90
27848;DHT22;15212;48.830;8.730;2024-02-28T05:16:04;4.70;99.90
27848;DHT22;15212;48.830;8.730;2024-02-28T05:18:32;4.70;99.90
27848;DHT22;15212;48.830;8.730;2024-02-28T05:21:01;4.70;99.90
27848;DHT22;15212;48.830;8.730;2024-02-28T05:23:29;4.70;99.90
27848;DHT22;15212;48.830;8.730;2024-02-28T05:25:58;4.80;99.90
27848;DHT22;15212;48.830;8.730;2024-02-28T05:28:28;4.80;99.90
27848;DHT22;15212;48.830;8.730;2024-02-28T05:31:01;4.90;99.90
27848;DHT22;15212;48.830;8.730;2024-02-28T05:33:34;4.90;99.90
27848;DHT22;15212;48.830;8.730;2024-02-28T05:36:02;4.90;99.90
27848;DHT22;15212;48.830;8.730;2024-02-28T05:38:31;4.90;99.90
27848;DHT22;15212;48.830;8.730;2024-02-28T05:40:59;4.90;99.90
27848;DHT22;15212;48.830;8.730;2024-02-28T05:43:27;4.90;99.90
27848;DHT22;15212;48.830;8.730;2024-02-28T05:45:56;4.90;99.90
27848;DHT22;15212;48.830;8.730;2024-02-28T05:48:24;4.80;99.90
27848;DHT22;15212;48.830;8.730;2024-02-28T05:50:52;4.80;99.90
27848;DHT22;15212;48.830;8.730;2024-02-28T05:53:21;4.80;99.90
27848;DHT22;15212;48.830;8.730;2024-02-28T05:55:51;4.80;99.90
27848;DHT22;15212;48.830;8.730;2024-02-28T05:58:20;4.80;99.90
27848;DHT22;15212;48.830;8.730;2024-02-28T06:00:48;4.80;99.90
27848;DHT22;15212;48.830;8.730;2024-02-28T06:03:17;4.80;99.90
27848;DHT22;15212;48.830;8.730;2024-02-28T06:05:45;4.80;99.90
27848;DHT22;15212;48.830;8.730;2024-02-28T06:08:15;4.80;99.90
27848;DHT22;15212;48.830;8.730;2024-02-28T06:10:43;4.80;99.90
27848;DHT22;15212;48.830;8.730;2024-02-28T06:13:13;4.70;99.90
27848;DHT22;15212;48.830;8.730;2024-02-28T06:15:41;4.70;99.90
27848;DHT22;15212;48.830;8.730;2024-02-28T06:18:10;4.60;99.90
27848;DHT22;15212;48.830;8.730;2024-02-28T06:20:38;4.60;99.90
27848;DHT22;15212;48.830;8.730;2024-02-28T06:23:06;4.50;99.90
27848;DHT22;15212;48.830;8.730;2024-02-28T06:25:35;4.40;99.90
27848;DHT22;15212;48.830;8.730;2024-02-28T06:28:03;4.30;99.90
27848;DHT22;15212;48.830;8.730;2024-02-28T06:30:33;4.20;99.90
27848;DHT22;15212;48.830;8.730;2024-02-28T06:33:02;4.10;99.90
27848;DHT22;15212;48.830;8.730;2024-02-28T06:35:32;4.10;99.90
27848;DHT22;15212;48.830;8.730;2024-02-28T06:38:01;4.00;99.90
27848;DHT22;15212;48.830;8.730;2024-02-28T06:40:29;4.00;99.90
27848;DHT22;15212;48.830;8.730;2024-02-28T06:42:57;3.90;99.90
27848;DHT22;15212;48.830;8.730;2024-02-28T06:45:26;3.90;99.90
27848;DHT22;15212;48.830;8.730;2024-02-28T06:47:54;3.80;99.90
27848;DHT22;15212;48.830;8.730;2024-02-28T06:50:23;3.80;99.90
27848;DHT22;15212;48.830;8.730;2024-02-28T06:52:51;3.80;99.90
27848;DHT22;15212;48.830;8.730;2024-02-28T06:55:20;3.80;99.90
27848;DHT22;15212;48.830;8.730;2024-02-28T06:57:48;3.70;99.90
27848;DHT22;15212;48.830;8.730;2024-02-28T07:00:17;3.80;99.90
27848;DHT22;15212;48.830;8.730;2024-02-28T07:02:45;3.80;99.90
27848;DHT22;15212;48.830;8.730;2024-02-28T07:05:14;3.90;99.90
27848;DHT22;15212;48.830;8.730;2024-02-28T07:07:42;3.90;99.90
27848;DHT22;15212;48.830;8.730;2024-02-28T07:10:11;4.00;99.90
27848;DHT22;15212;48.830;8.730;2024-02-28T07:12:40;4.00;99.90
27848;DHT22;15212;48.830;8.730;2024-02-28T07:15:08;4.20;99.90
27848;DHT22;15212;48.830;8.730;2024-02-28T07:17:36;4.30;99.90
27848;DHT22;15212;48.830;8.730;2024-02-28T07:20:06;4.40;99.90
27848;DHT22;15212;48.830;8.730;2024-02-28T07:22:35;4.50;99.90
27848;DHT22;15212;48.830;8.730;2024-02-28T07:25:03;4.70;99.90
27848;DHT22;15212;48.830;8.730;2024-02-28T07:27:34;4.80;99.90
27848;DHT22;15212;48.830;8.730;2024-02-28T07:30:02;4.80;99.90
27848;DHT22;15212;48.830;8.730;2024-02-28T07:32:31;4.90;99.90
27848;DHT22;15212;48.830;8.730;2024-02-28T07:35:02;4.90;99.90
27848;DHT22;15212;48.830;8.730;2024-02-28T07:37:30;4.90;99.90
27848;DHT22;15212;48.830;8.730;2024-02-28T07:39:59;4.90;99.90
27848;DHT22;15212;48.830;8.730;2024-02-28T07:42:27;4.80;99.90
27848;DHT22;15212;48.830;8.730;2024-02-28T07:44:55;4.80;99.90
27848;DHT22;15212;48.830;8.730;2024-02-28T07:47:24;4.80;99.90
27848;DHT22;15212;48.830;8.730;2024-02-28T07:49:52;4.80;99.90
27848;DHT22;15212;48.830;8.730;2024-02-28T07:52:21;4.70;99.90
27848;DHT22;15212;48.830;8.730;2024-02-28T07:54:49;4.70;99.90
27848;DHT22;15212;48.830;8.730;2024-02-28T07:57:17;4.70;99.90
27848;DHT22;15212;48.830;8.730;2024-02-28T07:59:46;4.70;99.90
27848;DHT22;15212;48.830;8.730;2024-02-28T08:02:14;4.80;99.90
27848;DHT22;15212;48.830;8.730;2024-02-28T08:04:44;4.90;99.90
27848;DHT22;15212;48.830;8.730;2024-02-28T08:07:13;5.00;99.90
27848;DHT22;15212;48.830;8.730;2024-02-28T08:09:41;5.10;99.90
27848;DHT22;15212;48.830;8.730;2024-02-28T08:12:09;5.20;99.90
27848;DHT22;15212;48.830;8.730;2024-02-28T08:14:38;5.30;99.90
27848;DHT22;15212;48.830;8.730;2024-02-28T08:17:06;5.30;99.90
27848;DHT22;15212;48.830;8.730;2024-02-28T08:19:35;5.20;99.90
27848;DHT22;15212;48.830;8.730;2024-02-28T08:22:03;5.10;99.90
27848;DHT22;15212;48.830;8.730;2024-02-28T08:24:32;5.10;99.90
27848;DHT22;15212;48.830;8.730;2024-02-28T08:27:00;5.20;99.90
27848;DHT22;15212;48.830;8.730;2024-02-28T08:29:28;5.20;99.90
27848;DHT22;15212;48.830;8.730;2024-02-28T08:31:58;5.30;99.90
27848;DHT22;15212;48.830;8.730;2024-02-28T08:34:27;5.30;99.90
27848;DHT22;15212;48.830;8.730;2024-02-28T08:36:55;5.40;99.90
27848;DHT22;15212;48.830;8.730;2024-02-28T08:39:24;5.40;99.90
27848;DHT22;15212;48.830;8.730;2024-02-28T08:41:52;5.50;99.90
27848;DHT22;15212;48.830;8.730;2024-02-28T08:44:20;5.60;99.90
27848;DHT22;15212;48.830;8.730;2024-02-28T08:46:49;5.60;99.90
27848;DHT22;15212;48.830;8.730;2024-02-28T08:49:17;5.60;99.90
27848;DHT22;15212;48.830;8.730;2024-02-28T08:51:46;5.50;99.90
27848;DHT22;15212;48.830;8.730;2024-02-28T08:54:14;5.50;99.90
27848;DHT22;15212;48.830;8.730;2024-02-28T08:56:43;5.60;99.90
27848;DHT22;15212;48.830;8.730;2024-02-28T08:59:11;5.70;99.90
27848;DHT22;15212;48.830;8.730;2024-02-28T09:01:39;5.80;99.90
27848;DHT22;15212;48.830;8.730;2024-02-28T09:04:08;5.90;99.90
27848;DHT22;15212;48.830;8.730;2024-02-28T09:06:36;6.10;99.90
27848;DHT22;15212;48.830;8.730;2024-02-28T09:09:05;6.20;99.90
27848;DHT22;15212;48.830;8.730;2024-02-28T09:11:33;6.40;99.90
27848;DHT22;15212;48.830;8.730;2024-02-28T09:14:01;6.40;99.90
27848;DHT22;15212;48.830;8.730;2024-02-28T09:16:30;6.50;99.90
27848;DHT22;15212;48.830;8.730;2024-02-28T09:18:59;6.60;99.90
27848;DHT22;15212;48.830;8.730;2024-02-28T09:21:27;6.60;99.90
27848;DHT22;15212;48.830;8.730;2024-02-28T09:23:55;6.70;99.90
27848;DHT22;15212;48.830;8.730;2024-02-28T09:26:24;6.70;99.90
27848;DHT22;15212;48.830;8.730;2024-02-28T09:28:53;6.80;99.90
27848;DHT22;15212;48.830;8.730;2024-02-28T09:31:21;6.80;99.90
27848;DHT22;15212;48.830;8.730;2024-02-28T09:33:50;6.90;99.90
27848;DHT22;15212;48.830;8.730;2024-02-28T09:36:18;6.90;99.90
27848;DHT22;15212;48.830;8.730;2024-02-28T09:38:46;6.80;99.90
27848;DHT22;15212;48.830;8.730;2024-02-28T09:41:15;6.80;99.90
27848;DHT22;15212;48.830;8.730;2024-02-28T09:43:45;6.80;99.90
27848;DHT22;15212;48.830;8.730;2024-02-28T09:46:14;6.70;99.90
27848;DHT22;15212;48.830;8.730;2024-02-28T09:48:43;6.70;99.90
27848;DHT22;15212;48.830;8.730;2024-02-28T09:51:14;6.60;99.90
27848;DHT22;15212;48.830;8.730;2024-02-28T09:53:45;6.60;99.90
27848;DHT22;15212;48.830;8.730;2024-02-28T09:56:15;6.50;99.90
27848;DHT22;15212;48.830;8.730;2024-02-28T09:58:45;6.50;99.90
27848;DHT22;15212;48.830;8.730;2024-02-28T10:01:15;6.50;99.90
27848;DHT22;15212;48.830;8.730;2024-02-28T10:03:44;6.60;99.90
27848;DHT22;15212;48.830;8.730;2024-02-28T10:06:13;6.60;99.90
27848;DHT22;15212;48.830;8.730;2024-02-28T10:08:42;6.80;99.90
27848;DHT22;15212;48.830;8.730;2024-02-28T10:11:12;6.90;99.90
27848;DHT22;15212;48.830;8.730;2024-02-28T10:13:52;6.90;99.90
27848;DHT22;15212;48.830;8.730;2024-02-28T10:16:22;6.90;99.90
27848;DHT22;15212;48.830;8.730;2024-02-28T10:18:51;6.90;99.90
27848;DHT22;15212;48.830;8.730;2024-02-28T10:21:20;6.90;99.90
27848;DHT22;15212;48.830;8.730;2024-02-28T10:23:50;7.00;99.90
27848;DHT22;15212;48.830;8.730;2024-02-28T10:26:18;7.10;99.90
27848;DHT22;15212;48.830;8.730;2024-02-28T10:28:46;7.10;99.90
27848;DHT22;15212;48.830;8.730;2024-02-28T10:31:15;7.30;99.90
27848;DHT22;15212;48.830;8.730;2024-02-28T10:33:43;7.30;99.90
27848;DHT22;15212;48.830;8.730;2024-02-28T10:36:12;7.40;99.90
27848;DHT22;15212;48.830;8.730;2024-02-28T10:38:40;7.50;99.90
27848;DHT22;15212;48.830;8.730;2024-02-28T10:41:09;7.40;99.90
27848;DHT22;15212;48.830;8.730;2024-02-28T10:43:41;7.50;99.90
27848;DHT22;15212;48.830;8.730;2024-02-28T10:46:09;7.60;99.90
27848;DHT22;15212;48.830;8.730;2024-02-28T10:48:40;7.60;99.90
27848;DHT22;15212;48.830;8.730;2024-02-28T10:51:09;7.70;99.90
27848;DHT22;15212;48.830;8.730;2024-02-28T10:53:42;7.80;99.90
27848;DHT22;15212;48.830;8.730;2024-02-28T10:56:11;7.80;99.90
27848;DHT22;15212;48.830;8.730;2024-02-28T10:58:53;7.80;99.90
27848;DHT22;15212;48.830;8.730;2024-02-28T11:01:23;7.80;99.90
27848;DHT22;15212;48.830;8.730;2024-02-28T11:03:52;7.70;99.90
27848;DHT22;15212;48.830;8.730;2024-02-28T11:06:22;7.60;99.90
27848;DHT22;15212;48.830;8.730;2024-02-28T11:08:52;7.50;99.90
27848;DHT22;15212;48.830;8.730;2024-02-28T11:11:22;7.50;99.90
27848;DHT22;15212;48.830;8.730;2024-02-28T11:13:54;7.50;99.90
27848;DHT22;15212;48.830;8.730;2024-02-28T11:16:28;7.40;99.90
27848;DHT22;15212;48.830;8.730;2024-02-28T11:19:01;7.30;99.90
27848;DHT22;15212;48.830;8.730;2024-02-28T11:21:34;7.30;99.90
27848;DHT22;15212;48.830;8.730;2024-02-28T11:24:05;7.30;99.90
27848;DHT22;15212;48.830;8.730;2024-02-28T11:26:35;7.30;99.90
27848;DHT22;15212;48.830;8.730;2024-02-28T11:29:03;7.30;99.90
27848;DHT22;15212;48.830;8.730;2024-02-28T11:31:31;7.30;99.90
27848;DHT22;15212;48.830;8.730;2024-02-28T11:34:00;7.20;99.90
27848;DHT22;15212;48.830;8.730;2024-02-28T11:36:29;7.10;99.90
27848;DHT22;15212;48.830;8.730;2024-02-28T11:38:58;7.10;99.90
27848;DHT22;15212;48.830;8.730;2024-02-28T11:41:27;7.10;99.90
27848;DHT22;15212;48.830;8.730;2024-02-28T11:43:55;7.10;99.90
27848;DHT22;15212;48.830;8.730;2024-02-28T11:46:24;7.10;99.90
27848;DHT22;15212;48.830;8.730;2024-02-28T11:48:53;7.10;99.90
27848;DHT22;15212;48.830;8.730;2024-02-28T11:51:21;7.20;99.90
27848;DHT22;15212;48.830;8.730;2024-02-28T11:53:50;7.20;99.90
27848;DHT22;15212;48.830;8.730;2024-02-28T11:56:19;7.10;99.90
27848;DHT22;15212;48.830;8.730;2024-02-28T11:58:57;7.10;99.90
27848;DHT22;15212;48.830;8.730;2024-02-28T12:01:41;7.20;99.90
27848;DHT22;15212;48.830;8.730;2024-02-28T12:04:11;7.10;99.90
27848;DHT22;15212;48.830;8.730;2024-02-28T12:06:40;7.20;99.90
27848;DHT22;15212;48.830;8.730;2024-02-28T12:09:11;7.30;99.90
27848;DHT22;15212;48.830;8.730;2024-02-28T12:11:43;7.30;99.90
27848;DHT22;15212;48.830;8.730;2024-02-28T12:14:12;7.40;99.90
27848;DHT22;15212;48.830;8.730;2024-02-28T12:16:41;7.30;99.90
27848;DHT22;15212;48.830;8.730;2024-02-28T12:19:11;7.40;99.90
27848;DHT22;15212;48.830;8.730;2024-02-28T12:21:41;7.50;99.90
27848;DHT22;15212;48.830;8.730;2024-02-28T12:24:10;7.60;99.90
27848;DHT22;15212;48.830;8.730;2024-02-28T12:26:40;7.60;99.90
27848;DHT22;15212;48.830;8.730;2024-02-28T12:29:08;7.60;99.90
27848;DHT22;15212;48.830;8.730;2024-02-28T12:31:37;7.50;99.90
27848;DHT22;15212;48.830;8.730;2024-02-28T12:34:05;7.50;99.90
27848;DHT22;15212;48.830;8.730;2024-02-28T12:36:34;7.50;99.90
27848;DHT22;15212;48.830;8.730;2024-02-28T12:39:02;7.50;99.90
27848;DHT22;15212;48.830;8.730;2024-02-28T12:41:32;7.50;99.90
27848;DHT22;15212;48.830;8.730;2024-02-28T12:44:02;7.50;99.90
27848;DHT22;15212;48.830;8.730;2024-02-28T12:46:33;7.40;99.90
27848;DHT22;15212;48.830;8.730;2024-02-28T12:49:02;7.40;99.90
27848;DHT22;15212;48.830;8.730;2024-02-28T12:51:36;7.40;99.90
27848;DHT22;15212;48.830;8.730;2024-02-28T12:54:25;7.50;99.90
27848;DHT22;15212;48.830;8.730;2024-02-28T12:56:54;7.50;99.90
27848;DHT22;15212;48.830;8.730;2024-02-28T12:59:22;7.50;99.90
27848;DHT22;15212;48.830;8.730;2024-02-28T13:01:52;7.30;99.90
27848;DHT22;15212;48.830;8.730;2024-02-28T13:04:20;7.20;99.90
27848;DHT22;15212;48.830;8.730;2024-02-28T13:06:48;7.10;99.90
27848;DHT22;15212;48.830;8.730;2024-02-28T13:09:18;7.00;99.90
27848;DHT22;15212;48.830;8.730;2024-02-28T13:11:48;6.90;99.90
27848;DHT22;15212;48.830;8.730;2024-02-28T13:14:16;7.00;99.90
27848;DHT22;15212;48.830;8.730;2024-02-28T13:16:45;7.10;99.90
27848;DHT22;15212;48.830;8.730;2024-02-28T13:19:13;7.10;99.90
27848;DHT22;15212;48.830;8.730;2024-02-28T13:21:42;7.20;99.90
27848;DHT22;15212;48.830;8.730;2024-02-28T13:24:11;7.30;99.90
27848;DHT22;15212;48.830;8.730;2024-02-28T13:26:41;7.30;99.90
27848;DHT22;15212;48.830;8.730;2024-02-28T13:29:09;7.40;99.90
27848;DHT22;15212;48.830;8.730;2024-02-28T13:31:37;7.50;99.90
27848;DHT22;15212;48.830;8.730;2024-02-28T13:34:06;7.40;99.90
27848;DHT22;15212;48.830;8.730;2024-02-28T13:36:34;7.50;99.90
27848;DHT22;15212;48.830;8.730;2024-02-28T13:39:04;7.60;99.90
27848;DHT22;15212;48.830;8.730;2024-02-28T13:41:33;7.70;99.90
27848;DHT22;15212;48.830;8.730;2024-02-28T13:44:01;7.80;99.90
27848;DHT22;15212;48.830;8.730;2024-02-28T13:46:29;7.80;99.90
27848;DHT22;15212;48.830;8.730;2024-02-28T13:48:58;7.70;99.90
27848;DHT22;15212;48.830;8.730;2024-02-28T13:51:27;7.80;99.90
27848;DHT22;15212;48.830;8.730;2024-02-28T13:53:55;7.90;99.90
27848;DHT22;15212;48.830;8.730;2024-02-28T13:56:23;7.90;99.90
27848;DHT22;15212;48.830;8.730;2024-02-28T13:58:52;8.00;99.90
27848;DHT22;15212;48.830;8.730;2024-02-28T14:01:20;8.00;99.90
27848;DHT22;15212;48.830;8.730;2024-02-28T14:03:49;8.00;99.90
27848;DHT22;15212;48.830;8.730;2024-02-28T14:06:17;8.10;99.90
27848;DHT22;15212;48.830;8.730;2024-02-28T14:08:46;8.10;99.90
27848;DHT22;15212;48.830;8.730;2024-02-28T14:11:14;8.20;99.90
27848;DHT22;15212;48.830;8.730;2024-02-28T14:13:43;8.00;99.90
27848;DHT22;15212;48.830;8.730;2024-02-28T14:16:12;7.90;99.90
27848;DHT22;15212;48.830;8.730;2024-02-28T14:18:40;7.80;99.90
27848;DHT22;15212;48.830;8.730;2024-02-28T14:21:09;7.60;99.90
27848;DHT22;15212;48.830;8.730;2024-02-28T14:23:37;7.60;99.90
27848;DHT22;15212;48.830;8.730;2024-02-28T14:26:05;7.60;99.90
27848;DHT22;15212;48.830;8.730;2024-02-28T14:28:34;7.70;99.90
27848;DHT22;15212;48.830;8.730;2024-02-28T14:31:03;7.70;99.90
27848;DHT22;15212;48.830;8.730;2024-02-28T14:33:32;7.60;99.90
27848;DHT22;15212;48.830;8.730;2024-02-28T14:36:01;7.60;99.90
27848;DHT22;15212;48.830;8.730;2024-02-28T14:38:33;7.40;99.90
27848;DHT22;15212;48.830;8.730;2024-02-28T14:41:01;7.40;99.90
27848;DHT22;15212;48.830;8.730;2024-02-28T14:43:30;7.50;99.90
27848;DHT22;15212;48.830;8.730;2024-02-28T14:45:58;7.40;99.90
27848;DHT22;15212;48.830;8.730;2024-02-28T14:48:27;7.40;99.90
27848;DHT22;15212;48.830;8.730;2024-02-28T14:50:55;7.20;99.90
27848;DHT22;15212;48.830;8.730;2024-02-28T14:53:24;7.10;99.90
27848;DHT22;15212;48.830;8.730;2024-02-28T14:55:52;7.00;99.90
27848;DHT22;15212;48.830;8.730;2024-02-28T14:58:21;6.90;99.90
27848;DHT22;15212;48.830;8.730;2024-02-28T15:00:49;6.80;99.90
27848;DHT22;15212;48.830;8.730;2024-02-28T15:03:17;6.80;99.90
27848;DHT22;15212;48.830;8.730;2024-02-28T15:05:47;6.70;99.90
27848;DHT22;15212;48.830;8.730;2024-02-28T15:08:15;6.70;99.90
27848;DHT22;15212;48.830;8.730;2024-02-28T15:10:44;6.60;99.90
27848;DHT22;15212;48.830;8.730;2024-02-28T15:13:12;6.60;99.90
27848;DHT22;15212;48.830;8.730;2024-02-28T15:15:40;6.60;99.90
27848;DHT22;15212;48.830;8.730;2024-02-28T15:18:09;6.60;99.90
27848;DHT22;15212;48.830;8.730;2024-02-28T15:20:37;6.60;99.90
27848;DHT22;15212;48.830;8.730;2024-02-28T15:23:06;6.70;99.90
27848;DHT22;15212;48.830;8.730;2024-02-28T15:25:35;6.70;99.90
27848;DHT22;15212;48.830;8.730;2024-02-28T15:28:03;6.60;99.90
27848;DHT22;15212;48.830;8.730;2024-02-28T15:30:32;6.60;99.90
27848;DHT22;15212;48.830;8.730;2024-02-28T15:33:00;6.50;99.90
27848;DHT22;15212;48.830;8.730;2024-02-28T15:35:30;6.50;99.90
27848;DHT22;15212;48.830;8.730;2024-02-28T15:37:59;6.50;99.90
27848;DHT22;15212;48.830;8.730;2024-02-28T15:40:27;6.50;99.90
27848;DHT22;15212;48.830;8.730;2024-02-28T15:42:56;6.40;99.90
27848;DHT22;15212;48.830;8.730;2024-02-28T15:45:25;6.30;99.90
27848;DHT22;15212;48.830;8.730;2024-02-28T15:47:53;6.30;99.90
27848;DHT22;15212;48.830;8.730;2024-02-28T15:50:23;6.20;99.90
27848;DHT22;15212;48.830;8.730;2024-02-28T15:52:52;6.20;99.90
27848;DHT22;15212;48.830;8.730;2024-02-28T15:55:20;6.10;99.90